Meteo Giornale » Osservazioni meteo Austria » Innsbruck

ore: 22:20 - Osservazioni Meteo Innsbruck
Lat. 47° 16' N Lon. 11° 21' E Alt. 581 metri s.l.m.

coperto_pioggia Europe/Vienna

4 °C

Pioggia

Temp. 24 Ore

4 °C

18 °C

Nord

3.7 Km/h

Dew point 2 °C

Umidità 86 %

Visibilità  10 Km

Il sole sorge alle ore 06:48

Il sole tramonta alle ore 17:08

Data e Ora Cielo e Fenomeni T °C DP °C Um. % Pres. hPa Vis. km Vento km/h
Oggi h: 22:20 coperto_pioggia Pioggia 4 2 86 1011 10 N 3.7
Oggi h: 21:50 coperto_pioggia Pioggia 5 3 86 1011 10 N 5.5
Oggi h: 21:20 coperto_pioggia Pioggia 5 4 93 1011 10 O/SO 7.4
Oggi h: 20:50 coperto_pioggia Pioggia 6 4 86 1011 10 O 9.3
Oggi h: 20:20 coperto_pioggia Pioggia Debole 6 5 93 1010 10 O 14.8
Oggi h: 19:50 coperto_pioggia Pioggia 6 4 86 1009 10 O/SO 14.8
Oggi h: 19:20 coperto_pioggia Pioggia 7 5 87 1009 10 O/SO 16.7
Oggi h: 18:50 coperto_pioggia Pioggia 7 5 87 1009 10 O/SO 14.8
Oggi h: 18:20 coperto_pioggia Pioggia 8 5 81 1008 10 SO 7.4
Oggi h: 17:50 coperto_pioggia Pioggia 8 7 93 1007 10 N 5.5
Oggi h: 16:50 coperto_pioggia Pioggia 9 7 87 1006 10 E/SE 7.4
Oggi h: 16:20 coperto_pioggia Pioggia 10 7 81 1006 10 N 3.7
Oggi h: 15:50 coperto_pioggia Pioggia 11 8 81 1005 10 E 11.1
Oggi h: 15:20 coperto_pioggia Pioggia Debole 12 7 71 1005 10 N 5.5
Oggi h: 14:50 nuvoloso_piovaschi Debole Rovescio di Pioggia 12 7 71 1005 10 O/SO 11.1
Oggi h: 14:20 nuvoloso_piovaschi Debole Rovescio di Pioggia 13 8 71 1004 10 O 14.8
Oggi h: 13:50 coperto_pioggia Pioggia Debole 13 8 71 1003 10 O 14.8
Oggi h: 13:20 coperto_pioggia Pioggia Debole 14 7 62 1003 10 O 18.5
Oggi h: 12:50 molto_nuvoloso Molto Nuvoloso 17 7 51 1002 10 SE 24
Oggi h: 12:20 molto_nuvoloso Molto Nuvoloso 18 6 45 1002 10 SE 25.9
Oggi h: 11:50 nuvoloso Nuvoloso 18 6 45 1002 10 E 20.3
Oggi h: 11:20 nuvoloso Nuvoloso 18 6 45 1001 10 E/SE 27.8
Oggi h: 10:50 nuvoloso Nuvoloso 18 7 48 1002 10 E/SE 24
Oggi h: 10:20 nuvoloso Nuvoloso 13 7 66 1003 10 O/SO 9.3
Oggi h: 09:20 poco_nuvoloso Poco Nuvoloso 10 6 76 1004 10 O 14.8
Oggi h: 08:50 poco_nuvoloso Poco Nuvoloso 8 5 81 1004 10 O/SO 16.7
Oggi h: 08:20 poco_nuvoloso Poco Nuvoloso 7 4 81 1004 10 O/SO 13
Oggi h: 07:50 poco_nuvoloso Poco Nuvoloso 6 4 86 1004 10 O 18.5
Oggi h: 07:20 poco_nuvoloso Poco Nuvoloso 6 4 86 1003 10 O 18.5
Oggi h: 06:50 poco_nuvoloso Poco Nuvoloso 7 4 81 1003 10 SO 11.1
Oggi h: 06:20 poco_nuvoloso Poco Nuvoloso 8 5 81 1003 10 O/SO 13
Oggi h: 05:50 poco_nuvoloso Poco Nuvoloso 13 6 62 1004 10 N 18.5
Oggi h: 05:20 sereno Sereno 10 5 71 1004 10 N/NO 16.7
Oggi h: 04:50 sereno Sereno 9 5 75 1005 10 N 11.1
Oggi h: 04:20 sereno Sereno 7 5 87 1005 10 O 22.2
Oggi h: 03:50 sereno Sereno 7 5 87 1005 10 O 16.7
Oggi h: 03:20 sereno Sereno 7 5 87 1006 10 O 14.8
Oggi h: 02:50 sereno Sereno 7 5 87 1006 10 O 13
Oggi h: 02:20 sereno Sereno 7 5 87 1007 10 O 16.7
Oggi h: 01:50 sereno Sereno 7 5 87 1007 10 O 14.8
Oggi h: 01:20 sereno Sereno 7 5 87 1008 10 O 22.2
Oggi h: 01:50 sereno Sereno 7 5 87 1008 10 O 16.7
Oggi h: 01:20 sereno Sereno 7 5 87 1009 10 O 20.3
Oggi h: 00:50 sereno Sereno 7 5 87 1009 10 O 13
Oggi h: 00:20 sereno Sereno 7 5 87 1009 10 O 14.8
Ieri h: 23:50 poco_nuvoloso Poco Nuvoloso 8 5 81 1009 10 O 18.5
Ieri h: 23:20 poco_nuvoloso Poco Nuvoloso 8 5 81 1010 10 N 7.4
Ieri h: 22:50 poco_nuvoloso Poco Nuvoloso 8 6 87 1010 10 O 11.1